sensor_id;sensor_type;location;lat;lon;timestamp;pressure;altitude;pressure_sealevel;temperature;humidity
68871;BME280;55906;52.278;6.808;2022-08-19T00:00:07;101239.31;;;19.13;71.03
68871;BME280;55906;52.278;6.808;2022-08-19T00:02:36;101241.09;;;19.09;71.28
68871;BME280;55906;52.278;6.808;2022-08-19T00:05:03;101239.34;;;19.02;71.49
68871;BME280;55906;52.278;6.808;2022-08-19T00:07:31;101238.44;;;19.00;71.63
68871;BME280;55906;52.278;6.808;2022-08-19T00:09:58;101237.56;;;18.98;71.63
68871;BME280;55906;52.278;6.808;2022-08-19T00:12:25;101246.47;;;18.96;71.68
68871;BME280;55906;52.278;6.808;2022-08-19T00:14:51;101241.16;;;18.93;71.65
68871;BME280;55906;52.278;6.808;2022-08-19T00:17:19;101246.47;;;18.90;71.91
68871;BME280;55906;52.278;6.808;2022-08-19T00:19:46;101242.94;;;18.84;71.98
68871;BME280;55906;52.278;6.808;2022-08-19T00:22:12;101245.59;;;18.83;72.04
68871;BME280;55906;52.278;6.808;2022-08-19T00:24:41;101239.38;;;18.82;72.11
68871;BME280;55906;52.278;6.808;2022-08-19T00:27:09;101250.06;;;18.81;71.95
68871;BME280;55906;52.278;6.808;2022-08-19T00:29:35;101241.16;;;18.79;72.00
68871;BME280;55906;52.278;6.808;2022-08-19T00:32:02;101245.63;;;18.77;72.14
68871;BME280;55906;52.278;6.808;2022-08-19T00:34:29;101238.53;;;18.73;72.41
68871;BME280;55906;52.278;6.808;2022-08-19T00:36:56;101240.31;;;18.71;72.31
68871;BME280;55906;52.278;6.808;2022-08-19T00:39:25;101231.41;;;18.66;72.59
68871;BME280;55906;52.278;6.808;2022-08-19T00:41:53;101233.19;;;18.65;72.69
68871;BME280;55906;52.278;6.808;2022-08-19T00:44:22;101234.97;;;18.62;73.04
68871;BME280;55906;52.278;6.808;2022-08-19T00:46:51;101243.84;;;18.61;72.71
68871;BME280;55906;52.278;6.808;2022-08-19T00:49:25;101252.75;;;18.61;72.67
68871;BME280;55906;52.278;6.808;2022-08-19T00:51:57;101247.38;;;18.58;73.18
68871;BME280;55906;52.278;6.808;2022-08-19T00:54:25;101245.63;;;18.55;73.03
68871;BME280;55906;52.278;6.808;2022-08-19T00:56:54;101247.38;;;18.55;72.99
68871;BME280;55906;52.278;6.808;2022-08-19T00:59:20;101242.94;;;18.51;73.06
68871;BME280;55906;52.278;6.808;2022-08-19T01:01:47;101234.06;;;18.49;73.00
68871;BME280;55906;52.278;6.808;2022-08-19T01:04:14;101234.06;;;18.46;73.25
68871;BME280;55906;52.278;6.808;2022-08-19T01:06:41;101237.63;;;18.45;73.22
68871;BME280;55906;52.278;6.808;2022-08-19T01:09:08;101231.41;;;18.43;73.25
68871;BME280;55906;52.278;6.808;2022-08-19T01:11:38;101228.75;;;18.44;73.40
68871;BME280;55906;52.278;6.808;2022-08-19T01:14:08;101219.88;;;18.44;73.48
68871;BME280;55906;52.278;6.808;2022-08-19T01:16:38;101228.75;;;18.44;73.54
68871;BME280;55906;52.278;6.808;2022-08-19T01:19:12;101224.31;;;18.43;73.53
68871;BME280;55906;52.278;6.808;2022-08-19T01:21:47;101219.88;;;18.39;73.31
68871;BME280;55906;52.278;6.808;2022-08-19T01:24:17;101222.53;;;18.38;73.41
68871;BME280;55906;52.278;6.808;2022-08-19T01:26:46;101230.53;;;18.36;73.54
68871;BME280;55906;52.278;6.808;2022-08-19T01:29:13;101216.31;;;18.34;73.29
68871;BME280;55906;52.278;6.808;2022-08-19T01:31:40;101218.97;;;18.33;73.49
68871;BME280;55906;52.278;6.808;2022-08-19T01:34:07;101221.66;;;18.28;73.63
68871;BME280;55906;52.278;6.808;2022-08-19T01:36:37;101223.44;;;18.28;73.62
68871;BME280;55906;52.278;6.808;2022-08-19T01:39:06;101229.63;;;18.25;73.94
68871;BME280;55906;52.278;6.808;2022-08-19T01:41:36;101224.31;;;18.22;73.75
68871;BME280;55906;52.278;6.808;2022-08-19T01:44:05;101221.66;;;18.20;73.99
68871;BME280;55906;52.278;6.808;2022-08-19T01:46:32;101230.50;;;18.19;73.80
68871;BME280;55906;52.278;6.808;2022-08-19T01:48:59;101230.50;;;18.16;73.59
68871;BME280;55906;52.278;6.808;2022-08-19T01:51:26;101229.59;;;18.17;73.83
68871;BME280;55906;52.278;6.808;2022-08-19T01:53:54;101228.72;;;18.14;73.87
68871;BME280;55906;52.278;6.808;2022-08-19T01:59:44;101224.28;;;18.07;74.09
68871;BME280;55906;52.278;6.808;2022-08-19T02:02:11;101229.59;;;18.07;74.19
68871;BME280;55906;52.278;6.808;2022-08-19T02:04:39;101226.03;;;18.05;74.22
68871;BME280;55906;52.278;6.808;2022-08-19T02:07:06;101221.59;;;18.02;73.91
68871;BME280;55906;52.278;6.808;2022-08-19T02:09:33;101226.03;;;18.02;74.16
68871;BME280;55906;52.278;6.808;2022-08-19T02:12:00;101225.16;;;18.00;74.13
68871;BME280;55906;52.278;6.808;2022-08-19T02:14:27;101234.91;;;17.99;74.04
68871;BME280;55906;52.278;6.808;2022-08-19T02:16:58;101225.16;;;17.97;74.76
68871;BME280;55906;52.278;6.808;2022-08-19T02:19:24;101218.94;;;17.95;74.26
68871;BME280;55906;52.278;6.808;2022-08-19T02:21:51;101224.25;;;17.95;74.15
68871;BME280;55906;52.278;6.808;2022-08-19T02:24:18;101222.47;;;17.90;74.23
68871;BME280;55906;52.278;6.808;2022-08-19T02:26:44;101215.38;;;17.88;74.42
68871;BME280;55906;52.278;6.808;2022-08-19T02:29:11;101225.13;;;17.87;74.52
68871;BME280;55906;52.278;6.808;2022-08-19T02:31:37;101224.25;;;17.85;74.34
68871;BME280;55906;52.278;6.808;2022-08-19T02:34:05;101228.69;;;17.86;74.72
68871;BME280;55906;52.278;6.808;2022-08-19T02:36:32;101222.47;;;17.84;74.45
68871;BME280;55906;52.278;6.808;2022-08-19T02:38:59;101232.22;;;17.82;74.45
68871;BME280;55906;52.278;6.808;2022-08-19T02:41:28;101226.91;;;17.79;74.59
68871;BME280;55906;52.278;6.808;2022-08-19T02:43:57;101227.78;;;17.78;74.65
68871;BME280;55906;52.278;6.808;2022-08-19T02:46:27;101218.91;;;17.78;75.11
68871;BME280;55906;52.278;6.808;2022-08-19T02:48:57;101220.69;;;17.77;74.84
68871;BME280;55906;52.278;6.808;2022-08-19T02:51:28;101232.22;;;17.75;75.13
68871;BME280;55906;52.278;6.808;2022-08-19T02:53:55;101231.31;;;17.73;74.77
68871;BME280;55906;52.278;6.808;2022-08-19T02:56:23;101224.22;;;17.70;75.02
68871;BME280;55906;52.278;6.808;2022-08-19T02:58:52;101227.75;;;17.72;74.99
68871;BME280;55906;52.278;6.808;2022-08-19T03:01:22;101233.97;;;17.71;75.13
68871;BME280;55906;52.278;6.808;2022-08-19T03:03:48;101241.06;;;17.71;74.88
68871;BME280;55906;52.278;6.808;2022-08-19T03:06:15;101239.28;;;17.70;74.70
68871;BME280;55906;52.278;6.808;2022-08-19T03:08:45;101238.41;;;17.69;75.32
68871;BME280;55906;52.278;6.808;2022-08-19T03:11:13;101243.72;;;17.68;75.25
68871;BME280;55906;52.278;6.808;2022-08-19T03:13:40;101243.72;;;17.66;75.22
68871;BME280;55906;52.278;6.808;2022-08-19T03:16:08;101244.56;;;17.65;75.20
68871;BME280;55906;52.278;6.808;2022-08-19T03:18:35;101235.75;;;17.66;75.29
68871;BME280;55906;52.278;6.808;2022-08-19T03:21:02;101244.59;;;17.67;75.08
68871;BME280;55906;52.278;6.808;2022-08-19T03:23:29;101234.81;;;17.64;75.17
68871;BME280;55906;52.278;6.808;2022-08-19T03:25:57;101240.13;;;17.63;75.15
68871;BME280;55906;52.278;6.808;2022-08-19T03:28:23;101240.13;;;17.63;75.26
68871;BME280;55906;52.278;6.808;2022-08-19T03:30:57;101237.47;;;17.63;75.79
68871;BME280;55906;52.278;6.808;2022-08-19T03:33:26;101237.47;;;17.59;75.39
68871;BME280;55906;52.278;6.808;2022-08-19T03:36:00;101229.47;;;17.59;75.81
68871;BME280;55906;52.278;6.808;2022-08-19T03:38:29;101234.78;;;17.56;75.39
68871;BME280;55906;52.278;6.808;2022-08-19T03:40:57;101226.81;;;17.59;75.42
68871;BME280;55906;52.278;6.808;2022-08-19T03:43:24;101232.13;;;17.58;75.24
68871;BME280;55906;52.278;6.808;2022-08-19T03:45:59;101229.47;;;17.58;76.14
68871;BME280;55906;52.278;6.808;2022-08-19T03:48:26;101232.13;;;17.58;75.46
68871;BME280;55906;52.278;6.808;2022-08-19T03:50:52;101227.69;;;17.60;75.68
68871;BME280;55906;52.278;6.808;2022-08-19T03:53:19;101227.72;;;17.63;75.38
68871;BME280;55906;52.278;6.808;2022-08-19T03:55:46;101221.50;;;17.63;75.77
68871;BME280;55906;52.278;6.808;2022-08-19T03:58:14;101222.41;;;17.65;75.81
68871;BME280;55906;52.278;6.808;2022-08-19T04:00:41;101233.06;;;17.66;75.48
68871;BME280;55906;52.278;6.808;2022-08-19T04:03:08;101232.16;;;17.66;75.75
68871;BME280;55906;52.278;6.808;2022-08-19T04:05:35;101228.66;;;17.68;75.62
68871;BME280;55906;52.278;6.808;2022-08-19T04:08:03;101226.00;;;17.70;75.64
68871;BME280;55906;52.278;6.808;2022-08-19T04:10:31;101222.44;;;17.69;75.46
68871;BME280;55906;52.278;6.808;2022-08-19T04:12:57;101217.13;;;17.68;75.74
68871;BME280;55906;52.278;6.808;2022-08-19T04:15:26;101218.84;;;17.64;75.66
68871;BME280;55906;52.278;6.808;2022-08-19T04:17:54;101219.72;;;17.62;75.73
68871;BME280;55906;52.278;6.808;2022-08-19T04:20:20;101211.72;;;17.57;75.72
68871;BME280;55906;52.278;6.808;2022-08-19T04:22:47;101219.69;;;17.54;75.88
68871;BME280;55906;52.278;6.808;2022-08-19T04:25:13;101219.69;;;17.52;75.97
68871;BME280;55906;52.278;6.808;2022-08-19T04:27:40;101224.13;;;17.52;75.84
68871;BME280;55906;52.278;6.808;2022-08-19T04:30:12;101221.47;;;17.50;75.78
68871;BME280;55906;52.278;6.808;2022-08-19T04:32:41;101221.47;;;17.49;75.96
68871;BME280;55906;52.278;6.808;2022-08-19T04:35:08;101215.25;;;17.47;76.00
68871;BME280;55906;52.278;6.808;2022-08-19T04:37:35;101217.03;;;17.48;75.92
68871;BME280;55906;52.278;6.808;2022-08-19T04:40:05;101209.03;;;17.45;75.77
68871;BME280;55906;52.278;6.808;2022-08-19T04:42:49;101210.78;;;17.37;76.07
68871;BME280;55906;52.278;6.808;2022-08-19T04:45:16;101212.56;;;17.38;76.06
68871;BME280;55906;52.278;6.808;2022-08-19T04:47:44;101211.69;;;17.39;76.22
68871;BME280;55906;52.278;6.808;2022-08-19T04:50:10;101215.22;;;17.38;76.21
68871;BME280;55906;52.278;6.808;2022-08-19T04:52:37;101212.56;;;17.39;76.10
68871;BME280;55906;52.278;6.808;2022-08-19T04:55:08;101230.31;;;17.42;75.92
68871;BME280;55906;52.278;6.808;2022-08-19T04:57:34;101227.66;;;17.42;75.92
68871;BME280;55906;52.278;6.808;2022-08-19T05:00:07;101225.88;;;17.44;75.95
68871;BME280;55906;52.278;6.808;2022-08-19T05:02:34;101238.28;;;17.45;75.92
68871;BME280;55906;52.278;6.808;2022-08-19T05:05:03;101242.75;;;17.47;76.12
68871;BME280;55906;52.278;6.808;2022-08-19T05:07:31;101240.97;;;17.51;75.73
68871;BME280;55906;52.278;6.808;2022-08-19T05:09:58;101236.56;;;17.53;75.80
68871;BME280;55906;52.278;6.808;2022-08-19T05:12:25;101229.47;;;17.58;75.79
68871;BME280;55906;52.278;6.808;2022-08-19T05:14:52;101234.81;;;17.61;75.71
68871;BME280;55906;52.278;6.808;2022-08-19T05:17:19;101235.75;;;17.66;75.48
68871;BME280;55906;52.278;6.808;2022-08-19T05:19:46;101241.97;;;17.71;75.68
68871;BME280;55906;52.278;6.808;2022-08-19T05:22:31;101230.44;;;17.80;75.50
68871;BME280;55906;52.278;6.808;2022-08-19T05:25:04;101232.25;;;17.88;75.36
68871;BME280;55906;52.278;6.808;2022-08-19T05:27:32;101232.25;;;18.04;74.38
68871;BME280;55906;52.278;6.808;2022-08-19T05:29:59;101230.50;;;18.15;74.39
68871;BME280;55906;52.278;6.808;2022-08-19T05:32:27;101236.72;;;18.20;74.25
68871;BME280;55906;52.278;6.808;2022-08-19T05:34:54;101233.19;;;18.30;74.26
68871;BME280;55906;52.278;6.808;2022-08-19T05:37:21;101225.19;;;18.36;74.17
68871;BME280;55906;52.278;6.808;2022-08-19T05:39:49;101222.53;;;18.39;74.28
68871;BME280;55906;52.278;6.808;2022-08-19T05:42:15;101227.84;;;18.41;74.40
68871;BME280;55906;52.278;6.808;2022-08-19T05:44:43;101226.09;;;18.38;74.78
68871;BME280;55906;52.278;6.808;2022-08-19T05:47:11;101233.19;;;18.42;74.35
68871;BME280;55906;52.278;6.808;2022-08-19T05:49:38;101227.84;;;18.44;74.54
68871;BME280;55906;52.278;6.808;2022-08-19T05:52:07;101233.19;;;18.47;74.17
68871;BME280;55906;52.278;6.808;2022-08-19T05:54:36;101229.63;;;18.45;74.59
68871;BME280;55906;52.278;6.808;2022-08-19T05:57:07;101227.84;;;18.45;74.72
68871;BME280;55906;52.278;6.808;2022-08-19T05:59:34;101228.75;;;18.47;74.72
68871;BME280;55906;52.278;6.808;2022-08-19T06:02:02;101227.84;;;18.50;74.45
68871;BME280;55906;52.278;6.808;2022-08-19T06:04:29;101238.50;;;18.54;74.31
68871;BME280;55906;52.278;6.808;2022-08-19T06:06:56;101231.41;;;18.60;74.42
68871;BME280;55906;52.278;6.808;2022-08-19T06:09:23;101230.50;;;18.58;74.71
68871;BME280;55906;52.278;6.808;2022-08-19T06:11:52;101234.94;;;18.59;74.91
68871;BME280;55906;52.278;6.808;2022-08-19T06:14:24;101234.09;;;18.63;75.16
68871;BME280;55906;52.278;6.808;2022-08-19T06:16:51;101236.75;;;18.66;75.80
68871;BME280;55906;52.278;6.808;2022-08-19T06:19:20;101226.97;;;18.68;75.78
68871;BME280;55906;52.278;6.808;2022-08-19T06:21:48;101239.41;;;18.75;75.46
68871;BME280;55906;52.278;6.808;2022-08-19T06:24:17;101238.50;;;18.85;75.59
68871;BME280;55906;52.278;6.808;2022-08-19T06:26:47;101242.94;;;18.91;75.68
68871;BME280;55906;52.278;6.808;2022-08-19T06:29:16;101245.56;;;19.01;76.30
68871;BME280;55906;52.278;6.808;2022-08-19T06:31:46;101245.53;;;19.10;75.51
68871;BME280;55906;52.278;6.808;2022-08-19T06:34:14;101240.19;;;19.16;75.89
68871;BME280;55906;52.278;6.808;2022-08-19T06:36:43;101232.13;;;19.27;76.66
68871;BME280;55906;52.278;6.808;2022-08-19T06:39:12;101236.59;;;19.27;76.67
68871;BME280;55906;52.278;6.808;2022-08-19T06:41:41;101237.41;;;19.39;76.30
68871;BME280;55906;52.278;6.808;2022-08-19T06:44:08;101229.38;;;19.50;76.45
68871;BME280;55906;52.278;6.808;2022-08-19T06:46:35;101234.69;;;19.50;76.27
68871;BME280;55906;52.278;6.808;2022-08-19T06:49:03;101237.41;;;19.59;76.34
68871;BME280;55906;52.278;6.808;2022-08-19T06:51:30;101242.66;;;19.74;75.49
68871;BME280;55906;52.278;6.808;2022-08-19T06:53:58;101238.16;;;19.83;75.46
68871;BME280;55906;52.278;6.808;2022-08-19T06:56:26;101240.81;;;19.84;75.56
68871;BME280;55906;52.278;6.808;2022-08-19T06:58:56;101234.53;;;19.90;75.01
68871;BME280;55906;52.278;6.808;2022-08-19T07:01:23;101230.91;;;20.00;74.92
68871;BME280;55906;52.278;6.808;2022-08-19T07:03:49;101235.25;;;20.16;74.39
68871;BME280;55906;52.278;6.808;2022-08-19T07:06:18;101236.03;;;20.27;73.96
68871;BME280;55906;52.278;6.808;2022-08-19T07:08:46;101237.75;;;20.34;73.90
68871;BME280;55906;52.278;6.808;2022-08-19T07:11:15;101239.50;;;20.43;73.35
68871;BME280;55906;52.278;6.808;2022-08-19T07:13:44;101236.75;;;20.54;73.15
68871;BME280;55906;52.278;6.808;2022-08-19T07:16:13;101238.44;;;20.62;72.74
68871;BME280;55906;52.278;6.808;2022-08-19T07:18:41;101238.31;;;20.74;72.05
68871;BME280;55906;52.278;6.808;2022-08-19T07:21:10;101239.09;;;20.89;72.05
68871;BME280;55906;52.278;6.808;2022-08-19T07:23:39;101238.06;;;21.00;71.11
68871;BME280;55906;52.278;6.808;2022-08-19T07:26:07;101249.44;;;21.19;71.07
68871;BME280;55906;52.278;6.808;2022-08-19T07:28:34;101238.56;;;21.37;70.31
68871;BME280;55906;52.278;6.808;2022-08-19T07:31:05;101243.66;;;21.57;69.88
68871;BME280;55906;52.278;6.808;2022-08-19T07:33:32;101247.00;;;21.73;69.13
68871;BME280;55906;52.278;6.808;2022-08-19T07:36:02;101241.41;;;21.90;68.55
68871;BME280;55906;52.278;6.808;2022-08-19T07:38:29;101237.63;;;22.06;68.29
68871;BME280;55906;52.278;6.808;2022-08-19T07:40:57;101231.16;;;22.21;67.51
68871;BME280;55906;52.278;6.808;2022-08-19T07:43:24;101237.25;;;22.30;67.38
68871;BME280;55906;52.278;6.808;2022-08-19T07:45:52;101237.91;;;22.45;66.87
68871;BME280;55906;52.278;6.808;2022-08-19T07:48:21;101235.91;;;22.57;66.62
68871;BME280;55906;52.278;6.808;2022-08-19T07:50:51;101242.69;;;22.77;66.10
68871;BME280;55906;52.278;6.808;2022-08-19T07:53:19;101243.47;;;22.85;65.55
68871;BME280;55906;52.278;6.808;2022-08-19T07:55:46;101241.63;;;22.88;65.74
68871;BME280;55906;52.278;6.808;2022-08-19T07:58:16;101256.75;;;22.92;65.58
68871;BME280;55906;52.278;6.808;2022-08-19T08:00:45;101253.19;;;22.92;65.65
68871;BME280;55906;52.278;6.808;2022-08-19T08:03:13;101258.41;;;22.99;65.32
68871;BME280;55906;52.278;6.808;2022-08-19T08:05:41;101262.63;;;23.13;65.07
68871;BME280;55906;52.278;6.808;2022-08-19T08:08:26;101270.53;;;23.20;64.69
68871;BME280;55906;52.278;6.808;2022-08-19T08:11:11;101254.13;;;23.34;63.87
68871;BME280;55906;52.278;6.808;2022-08-19T08:13:39;101262.91;;;23.44;63.96
68871;BME280;55906;52.278;6.808;2022-08-19T08:16:06;101272.47;;;23.58;63.38
68871;BME280;55906;52.278;6.808;2022-08-19T08:18:33;101265.94;;;23.72;63.47
68871;BME280;55906;52.278;6.808;2022-08-19T08:21:07;101265.66;;;23.84;62.58
68871;BME280;55906;52.278;6.808;2022-08-19T08:23:34;101273.28;;;24.02;62.57
68871;BME280;55906;52.278;6.808;2022-08-19T08:26:00;101272.88;;;24.20;61.90
68871;BME280;55906;52.278;6.808;2022-08-19T08:28:31;101274.22;;;24.40;61.60
68871;BME280;55906;52.278;6.808;2022-08-19T08:30:59;101262.25;;;24.51;61.34
68871;BME280;55906;52.278;6.808;2022-08-19T08:33:27;101271.75;;;24.66;60.36
68871;BME280;55906;52.278;6.808;2022-08-19T08:35:55;101279.44;;;24.81;60.35
68871;BME280;55906;52.278;6.808;2022-08-19T08:38:21;101285.31;;;24.99;59.60
68871;BME280;55906;52.278;6.808;2022-08-19T08:40:50;101279.28;;;25.22;58.82
68871;BME280;55906;52.278;6.808;2022-08-19T08:43:24;101279.69;;;25.39;57.60
68871;BME280;55906;52.278;6.808;2022-08-19T08:45:56;101289.88;;;25.59;57.58
68871;BME280;55906;52.278;6.808;2022-08-19T08:48:35;101280.81;;;25.92;56.10
68871;BME280;55906;52.278;6.808;2022-08-19T08:51:05;101283.31;;;26.28;55.41
68871;BME280;55906;52.278;6.808;2022-08-19T08:53:34;101271.47;;;26.60;55.84
68871;BME280;55906;52.278;6.808;2022-08-19T08:56:04;101277.41;;;26.96;55.66
68871;BME280;55906;52.278;6.808;2022-08-19T08:58:37;101270.72;;;27.32;50.99
68871;BME280;55906;52.278;6.808;2022-08-19T09:01:09;101262.69;;;27.54;51.20
68871;BME280;55906;52.278;6.808;2022-08-19T09:03:39;101271.00;;;27.73;49.56
68871;BME280;55906;52.278;6.808;2022-08-19T09:06:07;101262.75;;;27.99;49.78
68871;BME280;55906;52.278;6.808;2022-08-19T09:08:46;101259.75;;;28.29;46.41
68871;BME280;55906;52.278;6.808;2022-08-19T09:11:19;101277.00;;;28.92;46.27
68871;BME280;55906;52.278;6.808;2022-08-19T09:14:08;101264.56;;;29.47;44.31
68871;BME280;55906;52.278;6.808;2022-08-19T09:16:39;101268.53;;;29.78;44.33
68871;BME280;55906;52.278;6.808;2022-08-19T09:19:08;101252.25;;;30.34;42.05
68871;BME280;55906;52.278;6.808;2022-08-19T09:21:36;101253.69;;;30.60;41.54
68871;BME280;55906;52.278;6.808;2022-08-19T09:24:04;101252.56;;;31.16;39.50
68871;BME280;55906;52.278;6.808;2022-08-19T09:26:32;101251.34;;;31.39;39.91
68871;BME280;55906;52.278;6.808;2022-08-19T09:28:59;101243.81;;;31.77;39.46
68871;BME280;55906;52.278;6.808;2022-08-19T09:31:29;101250.13;;;32.40;38.54
68871;BME280;55906;52.278;6.808;2022-08-19T09:33:56;101248.78;;;32.93;37.36
68871;BME280;55906;52.278;6.808;2022-08-19T09:36:26;101251.34;;;33.11;36.63
68871;BME280;55906;52.278;6.808;2022-08-19T09:38:55;101245.75;;;33.42;36.45
68871;BME280;55906;52.278;6.808;2022-08-19T09:41:23;101241.44;;;34.09;35.58
68871;BME280;55906;52.278;6.808;2022-08-19T09:43:52;101247.81;;;34.37;35.15
68871;BME280;55906;52.278;6.808;2022-08-19T09:46:21;101238.97;;;34.85;33.54
68871;BME280;55906;52.278;6.808;2022-08-19T09:48:49;101239.91;;;35.11;32.37
68871;BME280;55906;52.278;6.808;2022-08-19T09:51:21;101238.28;;;35.34;32.78
68871;BME280;55906;52.278;6.808;2022-08-19T09:53:50;101240.63;;;35.77;32.27
68871;BME280;55906;52.278;6.808;2022-08-19T09:56:19;101239.00;;;35.74;31.19
68871;BME280;55906;52.278;6.808;2022-08-19T09:58:48;101228.59;;;35.67;31.38
68871;BME280;55906;52.278;6.808;2022-08-19T10:01:17;101237.59;;;35.31;30.69
68871;BME280;55906;52.278;6.808;2022-08-19T10:03:47;101229.69;;;35.89;30.30
68871;BME280;55906;52.278;6.808;2022-08-19T10:06:14;101240.19;;;34.94;30.81
68871;BME280;55906;52.278;6.808;2022-08-19T10:08:39;101237.19;;;35.49;30.22
68871;BME280;55906;52.278;6.808;2022-08-19T10:11:08;101236.91;;;35.90;29.46
68871;BME280;55906;52.278;6.808;2022-08-19T10:13:36;101229.88;;;35.99;29.28
68871;BME280;55906;52.278;6.808;2022-08-19T10:16:05;101242.72;;;35.10;30.63
68871;BME280;55906;52.278;6.808;2022-08-19T10:18:33;101234.38;;;34.19;32.05
68871;BME280;55906;52.278;6.808;2022-08-19T10:21:05;101240.84;;;34.04;32.02
68871;BME280;55906;52.278;6.808;2022-08-19T10:23:34;101236.66;;;33.27;32.62
68871;BME280;55906;52.278;6.808;2022-08-19T10:26:02;101237.78;;;33.82;31.75
68871;BME280;55906;52.278;6.808;2022-08-19T10:28:30;101236.31;;;33.90;31.95
68871;BME280;55906;52.278;6.808;2022-08-19T10:30:57;101229.19;;;34.69;30.27
68871;BME280;55906;52.278;6.808;2022-08-19T10:33:24;101219.44;;;35.42;29.05
68871;BME280;55906;52.278;6.808;2022-08-19T10:35:58;101226.00;;;34.62;29.70
68871;BME280;55906;52.278;6.808;2022-08-19T10:38:25;101231.72;;;34.32;30.67
68871;BME280;55906;52.278;6.808;2022-08-19T10:40:53;101223.75;;;34.81;29.94
68871;BME280;55906;52.278;6.808;2022-08-19T10:43:19;101225.59;;;35.33;29.31
68871;BME280;55906;52.278;6.808;2022-08-19T10:45:51;101220.22;;;35.94;27.95
68871;BME280;55906;52.278;6.808;2022-08-19T10:48:19;101214.09;;;36.50;27.67
68871;BME280;55906;52.278;6.808;2022-08-19T10:50:45;101222.75;;;35.35;28.34
68871;BME280;55906;52.278;6.808;2022-08-19T10:53:29;101223.97;;;35.80;27.67
68871;BME280;55906;52.278;6.808;2022-08-19T10:55:56;101217.19;;;36.46;27.88
68871;BME280;55906;52.278;6.808;2022-08-19T10:58:40;101206.69;;;36.40;27.25
68871;BME280;55906;52.278;6.808;2022-08-19T11:01:08;101206.00;;;36.84;26.74
68871;BME280;55906;52.278;6.808;2022-08-19T11:03:35;101211.16;;;36.65;26.71
68871;BME280;55906;52.278;6.808;2022-08-19T11:06:03;101215.53;;;37.02;26.05
68871;BME280;55906;52.278;6.808;2022-08-19T11:08:30;101217.22;;;36.09;27.86
68871;BME280;55906;52.278;6.808;2022-08-19T11:10:59;101213.88;;;36.17;26.55
68871;BME280;55906;52.278;6.808;2022-08-19T11:13:28;101207.13;;;36.81;26.05
68871;BME280;55906;52.278;6.808;2022-08-19T11:16:00;101198.41;;;38.10;25.42
68871;BME280;55906;52.278;6.808;2022-08-19T11:18:28;101210.19;;;38.01;24.91
68871;BME280;55906;52.278;6.808;2022-08-19T11:20:55;101206.47;;;38.34;24.86
68871;BME280;55906;52.278;6.808;2022-08-19T11:23:30;101201.41;;;38.51;25.08
68871;BME280;55906;52.278;6.808;2022-08-19T11:25:57;101211.78;;;38.47;24.64
68871;BME280;55906;52.278;6.808;2022-08-19T11:28:24;101199.84;;;38.37;24.73
68871;BME280;55906;52.278;6.808;2022-08-19T11:30:51;101199.91;;;38.79;24.40
68871;BME280;55906;52.278;6.808;2022-08-19T11:33:18;101204.34;;;38.70;24.39
68871;BME280;55906;52.278;6.808;2022-08-19T11:35:45;101201.00;;;39.39;23.40
68871;BME280;55906;52.278;6.808;2022-08-19T11:38:12;101197.34;;;39.28;23.10
68871;BME280;55906;52.278;6.808;2022-08-19T11:40:39;101191.28;;;39.34;23.78
68871;BME280;55906;52.278;6.808;2022-08-19T11:43:07;101192.13;;;39.56;23.45
68871;BME280;55906;52.278;6.808;2022-08-19T11:45:35;101191.47;;;40.42;22.11
68871;BME280;55906;52.278;6.808;2022-08-19T11:48:02;101200.91;;;39.80;21.83
68871;BME280;55906;52.278;6.808;2022-08-19T11:50:28;101205.53;;;38.98;20.85
68871;BME280;55906;52.278;6.808;2022-08-19T11:52:57;101197.91;;;39.22;20.69
68871;BME280;55906;52.278;6.808;2022-08-19T11:55:23;101186.53;;;39.46;20.81
68871;BME280;55906;52.278;6.808;2022-08-19T11:57:50;101188.53;;;38.93;20.33
68871;BME280;55906;52.278;6.808;2022-08-19T12:00:17;101186.34;;;39.28;20.05
68871;BME280;55906;52.278;6.808;2022-08-19T12:02:44;101176.00;;;40.30;19.41
68871;BME280;55906;52.278;6.808;2022-08-19T12:05:10;101184.81;;;39.85;20.37
68871;BME280;55906;52.278;6.808;2022-08-19T12:07:37;101186.94;;;39.72;19.56
68871;BME280;55906;52.278;6.808;2022-08-19T12:10:05;101185.91;;;39.33;18.76
68871;BME280;55906;52.278;6.808;2022-08-19T12:12:32;101184.34;;;39.40;19.70
68871;BME280;55906;52.278;6.808;2022-08-19T12:14:58;101177.47;;;40.24;19.25
68871;BME280;55906;52.278;6.808;2022-08-19T12:17:26;101185.38;;;39.79;18.97
68871;BME280;55906;52.278;6.808;2022-08-19T12:19:53;101181.13;;;40.35;18.75
68871;BME280;55906;52.278;6.808;2022-08-19T12:22:20;101179.56;;;39.82;18.69
68871;BME280;55906;52.278;6.808;2022-08-19T12:24:47;101195.50;;;39.69;19.29
68871;BME280;55906;52.278;6.808;2022-08-19T12:27:17;101178.41;;;40.44;18.68
68871;BME280;55906;52.278;6.808;2022-08-19T12:29:44;101175.31;;;40.67;19.00
68871;BME280;55906;52.278;6.808;2022-08-19T12:32:10;101173.19;;;40.41;19.64
68871;BME280;55906;52.278;6.808;2022-08-19T12:34:37;101169.19;;;40.15;19.21
68871;BME280;55906;52.278;6.808;2022-08-19T12:37:05;101176.94;;;40.59;18.85
68871;BME280;55906;52.278;6.808;2022-08-19T12:39:35;101191.03;;;40.56;18.78
68871;BME280;55906;52.278;6.808;2022-08-19T12:42:02;101178.19;;;41.41;18.21
68871;BME280;55906;52.278;6.808;2022-08-19T12:44:31;101178.34;;;41.39;18.14
68871;BME280;55906;52.278;6.808;2022-08-19T12:46:58;101181.47;;;41.17;17.94
68871;BME280;55906;52.278;6.808;2022-08-19T12:49:24;101182.53;;;41.80;17.67
68871;BME280;55906;52.278;6.808;2022-08-19T12:51:53;101179.38;;;41.75;17.65
68871;BME280;55906;52.278;6.808;2022-08-19T12:54:19;101183.00;;;42.03;17.13
68871;BME280;55906;52.278;6.808;2022-08-19T12:56:46;101176.03;;;41.35;17.36
68871;BME280;55906;52.278;6.808;2022-08-19T12:59:13;101157.31;;;41.56;17.02